Sail Pending — WD13132 — position and weather

sailwx.info

Track history (hours):
 
Tides and Currents Weather Stations Pressure Air Temp Water Temp Dewpoint Dewpoint Depression Visibility Wind Speed Wind Dir Waves Ship Positions

Sail Pending

Last reported at 2017-Dec-03 19:32 UTC. Time now 2017-Dec-17 02:43 UTC.
Position N 18°18' W 064°53'.
Warning: this ship's position is 13 days out of date.

Length 14 m.

Type: Sailing vessel. MMSI: 367685260.

Date/timePositionNaut miles runAvg speedWind from/ knotsBaromVisibWave heightAir tempDewpointWater temp
2017-Dec-03 19:32N 18°18' W 064°53'0 5.6
2017-Dec-03 19:30N 18°18' W 064°53'2 0.7
2017-Dec-03 17:12N 18°19' W 064°55'1 5.2
2017-Dec-03 17:00N 18°18' W 064°54'3 5.9
2017-Dec-03 16:30N 18°19' W 064°50'3 2.3
2017-Dec-03 15:05N 18°20' W 064°48'0 2.1
2017-Dec-03 15:00N 18°20' W 064°48'3 6.1
2017-Dec-03 14:30N 18°20' W 064°51'0 0.0
2017-Dec-02 22:29N 18°20' W 064°51'  
2017-Nov-24 19:06N 18°18' W 064°42'0 1.8
2017-Nov-24 19:00N 18°18' W 064°42'  
Track history (hours):
 
Tides and Currents Weather Stations Pressure Air Temp Water Temp Dewpoint Dewpoint Depression Visibility Wind Speed Wind Dir Waves Ship Positions

Sail Pending

Last reported at 2017-Dec-03 19:32 UTC. Time now 2017-Dec-17 02:43 UTC.
Position N 18°18' W 064°53'.
Warning: this ship's position is 13 days out of date.

Length 14 m.

Type: Sailing vessel. MMSI: 367685260.

Date/timePositionNaut miles runAvg speedWind from/ knotsBaromVisibWave heightAir tempDewpointWater temp
2017-Dec-03 19:32N 18°18' W 064°53'0 5.6
2017-Dec-03 19:30N 18°18' W 064°53'2 0.7
2017-Dec-03 17:12N 18°19' W 064°55'1 5.2
2017-Dec-03 17:00N 18°18' W 064°54'3 5.9
2017-Dec-03 16:30N 18°19' W 064°50'3 2.3
2017-Dec-03 15:05N 18°20' W 064°48'0 2.1
2017-Dec-03 15:00N 18°20' W 064°48'3 6.1
2017-Dec-03 14:30N 18°20' W 064°51'0 0.0
2017-Dec-02 22:29N 18°20' W 064°51'  
2017-Nov-24 19:06N 18°18' W 064°42'0 1.8
2017-Nov-24 19:00N 18°18' W 064°42'  

Dump ship's entire track history